Flight Track Log - Related Links

Times and Time Zones

All times are in EDT time to prevent confusion due to time zone crossing. See the N400TM flight status page for this flight to view local times or setup timezone preferences in your user account.

Time Position Orientation Groundspeed Altitude Reporting Facility
EDT Latitude Longitude Course Direction KTS MPH feet Rate Location/Type
Wed 01:48:10 PM 32.8333 -117.2167 301° West 125 144 2,900  Level Southern California TRACON
Wed 01:49:16 PM 32.8333 -117.2500 270° West 126 145 4,000 952 Climbing Southern California TRACON
Wed 01:50:16 PM 32.8833 -117.2667 344° North 136 157 4,900 995 Climbing Southern California TRACON
Wed 01:52:00 PM 32.9711 -116.8434 52° Northeast  Level FlightAware Approximate
Wed 01:52:47 PM 32.9208 -117.1664 66° East 135 155 7,500  Level Los Angeles Center
Wed 01:53:49 PM 32.9350 -117.1281 66° East 141 162 8,300 794 Climbing Los Angeles Center
Wed 01:55:03 PM 32.9528 -117.0839 64° Northeast 144 166 9,300 1,059 Climbing Los Angeles Center
Wed 01:56:05 PM 32.9758 -117.0200 67° East 149 171 10,700 1,152 Climbing Los Angeles Center
Wed 01:57:08 PM 33.0050 -116.9842 46° Northeast 148 170 11,700 960 Climbing Los Angeles Center
Wed 01:58:10 PM 33.0333 -116.9472 48° Northeast 151 174 12,700 968 Climbing Los Angeles Center
Wed 01:59:12 PM 33.0614 -116.9103 48° Northeast 150 173 13,700 857 Climbing Los Angeles Center
Wed 02:00:16 PM 33.0900 -116.8728 48° Northeast 151 174 14,500 714 Climbing Los Angeles Center
Wed 02:01:18 PM 33.1239 -116.8225 51° Northeast 158 182 15,200 290 Climbing Los Angeles Center
Wed 02:02:20 PM 33.1586 -116.7711 51° Northeast 186 214 15,100 -48 Descending Los Angeles Center
Wed 02:03:22 PM 33.1964 -116.7189 49° Northeast 202 232 15,100  Level Los Angeles Center
Wed 02:04:24 PM 33.2344 -116.6675 48° Northeast 206 237 15,100  Level Los Angeles Center
Wed 02:05:26 PM 33.2736 -116.6150 48° Northeast 209 241 15,100  Level Los Angeles Center
Wed 02:06:28 PM 33.3125 -116.5633 48° Northeast 208 239 15,100 -32 Level Los Angeles Center
Wed 02:08:33 PM 33.3936 -116.4469 50° Northeast 206 237 15,000  Descending Los Angeles Center
Wed 02:09:47 PM 33.4325 -116.3978 47° Northeast 205 236 15,100 44 Climbing Los Angeles Center
Wed 02:10:49 PM 33.4769 -116.3367 49° Northeast 202 232 15,100  Level Los Angeles Center
Wed 02:11:51 PM 33.5117 -116.2833 52° Northeast 202 232 15,100  Level Los Angeles Center
Wed 02:12:53 PM 33.5414 -116.2414 50° Northeast 204 235 15,100  Level Los Angeles Center
Wed 02:13:55 PM 33.5931 -116.1656 51° Northeast 208 239 15,100  Level Los Angeles Center
Wed 02:14:58 PM 33.6294 -116.1139 50° Northeast 205 236 15,100  Level Los Angeles Center
Wed 02:16:12 PM 33.6664 -116.0619 49° Northeast 204 235 15,100 44 Level Los Angeles Center
Wed 02:17:14 PM 33.7031 -115.9947 57° Northeast 205 236 15,200  Climbing Los Angeles Center
Wed 02:18:16 PM 33.7125 -115.9272 80° East 202 232 15,100 -48 Descending Los Angeles Center
Wed 02:19:18 PM 33.7244 -115.8611 78° East 204 235 15,100  Level Los Angeles Center
Wed 02:20:20 PM 33.7358 -115.7808 80° East 202 232 15,100  Level Los Angeles Center
Wed 02:21:23 PM 33.7417 -115.7144 84° East 201 231 15,100  Level Los Angeles Center
Wed 02:22:25 PM 33.7792 -115.6636 48° Northeast 203 234 15,100  Level Los Angeles Center
Wed 02:23:27 PM 33.8183 -115.6153 46° Northeast 201 231 15,100  Level Los Angeles Center
Wed 02:24:29 PM 33.8589 -115.5694 43° Northeast 201 231 15,100  Level Los Angeles Center
Wed 02:25:31 PM 33.8978 -115.5194 47° Northeast 203 234 15,100 -48 Level Los Angeles Center
Wed 02:26:33 PM 33.9450 -115.4614 46° Northeast 203 234 15,000 -48 Descending Los Angeles Center
Wed 02:27:35 PM 33.9856 -115.4133 44° Northeast 204 235 15,000  Level Los Angeles Center
Wed 02:28:37 PM 34.0239 -115.3636 47° Northeast 201 231 15,000  Level Los Angeles Center
Wed 02:29:39 PM 34.0653 -115.3197 41° Northeast 200 230 15,000  Level Los Angeles Center
Wed 02:30:41 PM 34.1044 -115.2706 46° Northeast 202 232 15,000 96 Level Los Angeles Center
Wed 02:31:44 PM 34.1525 -115.2161 43° Northeast 199 229 15,200 96 Climbing Los Angeles Center
Wed 02:32:46 PM 34.1928 -115.1708 43° Northeast 198 228 15,200  Level Los Angeles Center
Wed 02:33:48 PM 34.2317 -115.1236 45° Northeast 199 229 15,200 48 Level Los Angeles Center
Wed 02:34:50 PM 34.2703 -115.0775 45° Northeast 196 226 15,300  Climbing Los Angeles Center
Wed 02:35:52 PM 34.3106 -115.0303 44° Northeast 200 230 15,200  Descending Los Angeles Center
Wed 02:37:06 PM 34.3497 -114.9844 44° Northeast 198 228 15,300 44 Climbing Los Angeles Center
Wed 02:38:09 PM 34.3994 -114.9217 46° Northeast 201 231 15,300  Level Los Angeles Center
Wed 02:39:11 PM 34.4403 -114.8750 43° Northeast 201 231 15,300  Level Los Angeles Center
Wed 02:40:13 PM 34.4869 -114.8169 46° Northeast 200 230 15,300  Level Los Angeles Center
Wed 02:41:15 PM 34.5264 -114.7694 45° Northeast 199 229 15,300  Level Los Angeles Center
Wed 02:42:17 PM 34.5653 -114.7203 46° Northeast 202 232 15,300  Level Los Angeles Center
Wed 02:43:19 PM 34.6031 -114.6708 47° Northeast 201 231 15,300 -48 Level Los Angeles Center
Wed 02:44:21 PM 34.6428 -114.6225 45° Northeast 201 231 15,200  Descending Los Angeles Center
Wed 02:45:23 PM 34.6819 -114.5725 46° Northeast 205 236 15,300  Climbing Los Angeles Center
Wed 02:46:25 PM 34.7294 -114.5139 45° Northeast 202 232 15,200 -44 Descending Los Angeles Center
Wed 02:47:40 PM 34.7681 -114.4633 47° Northeast 203 234 15,200 44 Level Los Angeles Center
Wed 02:48:42 PM 34.7678 -114.3836 90° East 204 235 15,300  Climbing Los Angeles Center
Wed 02:49:44 PM 34.7597 -114.3186 99° East 197 227 15,200  Descending Los Angeles Center
Wed 02:50:46 PM 34.7594 -114.2511 90° East 198 228 15,300  Climbing Los Angeles Center
Wed 02:51:49 PM 34.7575 -114.1839 92° East 199 229 15,200  Descending Los Angeles Center
Wed 02:52:51 PM 34.7550 -114.1044 92° East 197 227 15,300 48 Climbing Los Angeles Center
Wed 02:53:53 PM 34.7536 -114.0369 91° East 197 227 15,300  Level Los Angeles Center
Wed 02:54:55 PM 34.7517 -113.9778 92° East 200 230 15,300  Level Los Angeles Center
Wed 02:55:57 PM 34.7483 -113.8986 93° East 198 228 15,300  Level Los Angeles Center
Wed 02:56:59 PM 34.7478 -113.8322 91° East 198 228 15,300  Level Los Angeles Center
Wed 02:58:13 PM 34.7461 -113.7633 92° East 204 235 15,300 44 Level Los Angeles Center
Wed 02:59:16 PM 34.7464 -113.6819 90° East 202 232 15,400 48 Climbing Albuquerque Center
Wed 03:00:17 PM 34.7442 -113.6053 92° East 193 222 15,400  Level Albuquerque Center
Wed 03:01:19 PM 34.7411 -113.5419 93° East 190 219 15,400 -49 Level Albuquerque Center
Wed 03:02:20 PM 34.7358 -113.4772 96° East 192 221 15,300 -98 Descending Albuquerque Center
Wed 03:03:22 PM 34.7347 -113.4108 91° East 197 227 15,200 -98 Descending Albuquerque Center
Wed 03:04:23 PM 34.7294 -113.3467 96° East 195 224 15,100 -293 Descending Albuquerque Center
Wed 03:05:25 PM 34.7281 -113.2822 91° East 193 222 14,600 -677 Descending Albuquerque Center
Wed 03:06:27 PM 34.7297 -113.2122 88° East 203 234 13,700 -976 Descending Albuquerque Center
Wed 03:07:28 PM 34.7272 -113.1267 92° East 211 243 12,600 -927 Descending Albuquerque Center
Wed 03:08:30 PM 34.7242 -113.0558 93° East 211 243 11,800 -829 Descending Albuquerque Center
Wed 03:09:31 PM 34.7211 -112.9875 93° East 207 238 10,900 -829 Descending Albuquerque Center
Wed 03:10:33 PM 34.7192 -112.9189 92° East 206 237 10,100 -390 Descending Albuquerque Center
Wed 03:11:34 PM 34.7169 -112.8550 92° East 199 229 10,100 -98 Level Albuquerque Center
Wed 03:12:36 PM 34.7153 -112.7872 92° East 178 205 9,900 -97 Descending Albuquerque Center
Wed 03:13:38 PM 34.7022 -112.7317 106° East 176 203 9,900 -98 Level Albuquerque Center
Wed 03:14:39 PM 34.6781 -112.6864 123° Southeast 167 192 9,700 -439 Descending Albuquerque Center
Wed 03:15:41 PM 34.6453 -112.6389 130° Southeast 174 200 9,000 -774 Descending Albuquerque Center
Wed 03:16:43 PM 34.6058 -112.5925 136° Southeast 188 216 8,100 -829 Descending Albuquerque Center
Wed 03:17:44 PM 34.5678 -112.5450 134° Southeast 194 223 7,300 -488 Descending Albuquerque Center
Wed 03:18:46 PM 34.5836 -112.4956 69° East 176 203 7,100 -387 Descending Albuquerque Center
Wed 03:19:48 PM 34.6086 -112.4694 41° Northeast 140 161 6,500 -726 Descending Albuquerque Center
Wed 03:20:50 PM 34.6333 -112.4428 42° Northeast 126 145 5,600 -871 Descending Albuquerque Center

Login

Don't have an account? Register now (free) for customized features, flight alerts, and more!